createdAt,value
2023-02-16T00:00:22.205Z,84.18
2023-02-16T00:01:24.718Z,84.38
2023-02-16T00:02:16.453Z,84.34
2023-02-16T00:03:19.268Z,84.19
2023-02-16T00:04:21.492Z,84.27
2023-02-16T00:05:32.914Z,84.50
2023-02-16T00:06:26.325Z,84.43
2023-02-16T00:07:17.724Z,84.42
2023-02-16T00:08:09.248Z,84.66
2023-02-16T00:09:00.676Z,84.64
2023-02-16T00:09:52.146Z,84.74
2023-02-16T00:11:05.581Z,84.58
2023-02-16T00:12:16.284Z,84.42
2023-02-16T00:13:47.460Z,84.71
2023-02-16T00:14:39.955Z,84.34
2023-02-16T00:15:31.847Z,84.54
2023-02-16T00:16:25.275Z,84.60
2023-02-16T00:17:16.716Z,84.60
2023-02-16T00:18:20.141Z,84.57
2023-02-16T00:19:36.189Z,84.79
2023-02-16T00:20:30.388Z,84.79
2023-02-16T00:21:22.776Z,84.66
2023-02-16T00:22:14.282Z,84.55
2023-02-16T00:23:05.743Z,84.80
2023-02-16T00:23:57.587Z,84.87
2023-02-16T00:24:49.095Z,84.81
2023-02-16T00:25:41.267Z,84.68
2023-02-16T00:26:35.411Z,84.84
2023-02-16T00:27:27.024Z,84.87
2023-02-16T00:28:21.250Z,84.89
2023-02-16T00:29:37.019Z,84.98
2023-02-16T00:30:28.568Z,84.98
2023-02-16T00:31:23.117Z,84.88
2023-02-16T00:32:15.042Z,84.93
2023-02-16T00:33:15.650Z,85.07
2023-02-16T00:34:22.766Z,85.05
2023-02-16T00:35:19.470Z,85.07
2023-02-16T00:36:11.013Z,85.01
2023-02-16T00:37:08.922Z,85.12
2023-02-16T00:38:01.398Z,85.16
2023-02-16T00:38:53.158Z,85.42
2023-02-16T00:39:45.524Z,85.19
2023-02-16T00:40:37.744Z,85.29
2023-02-16T00:41:49.392Z,85.37
2023-02-16T00:42:44.069Z,85.35
2023-02-16T00:43:35.676Z,85.26
2023-02-16T00:44:36.000Z,85.18
2023-02-16T00:45:27.586Z,85.31
2023-02-16T00:46:19.117Z,85.41
2023-02-16T00:47:21.802Z,85.26
2023-02-16T00:48:13.288Z,85.26
2023-02-16T00:49:04.797Z,85.30
2023-02-16T00:49:56.655Z,85.21
2023-02-16T00:50:50.196Z,85.44
2023-02-16T00:51:43.500Z,85.32
2023-02-16T00:52:42.966Z,85.42
2023-02-16T00:53:34.414Z,85.50
2023-02-16T00:54:25.876Z,85.49
2023-02-16T00:55:21.505Z,85.34
2023-02-16T00:56:20.490Z,85.36
2023-02-16T00:57:18.987Z,85.27
2023-02-16T00:58:24.309Z,85.58
2023-02-16T00:59:20.645Z,85.56
2023-02-16T01:00:18.927Z,85.56
2023-02-16T01:01:16.411Z,85.51
2023-02-16T01:02:11.244Z,85.46
2023-02-16T01:03:07.778Z,85.60
2023-02-16T01:04:05.595Z,85.63
2023-02-16T01:04:57.322Z,85.39
2023-02-16T01:05:48.829Z,85.42
2023-02-16T01:06:58.834Z,85.50
2023-02-16T01:08:10.659Z,85.42
2023-02-16T01:09:31.969Z,85.62
2023-02-16T01:10:46.530Z,85.78
2023-02-16T01:11:38.608Z,85.70
2023-02-16T01:12:30.348Z,85.74
2023-02-16T01:13:24.788Z,85.72
2023-02-16T01:14:16.469Z,85.69
2023-02-16T01:15:14.682Z,85.89
2023-02-16T01:16:18.630Z,86.05
2023-02-16T01:17:11.217Z,85.77
2023-02-16T01:18:02.796Z,85.83
2023-02-16T01:18:54.302Z,85.77
2023-02-16T01:19:45.848Z,85.74
2023-02-16T01:20:37.660Z,85.71
2023-02-16T01:21:29.191Z,85.78
2023-02-16T01:22:20.647Z,85.99
2023-02-16T01:23:12.699Z,85.91
2023-02-16T01:24:06.412Z,85.93
2023-02-16T01:24:58.087Z,85.86
2023-02-16T01:25:50.137Z,85.80
2023-02-16T01:26:47.685Z,85.75
2023-02-16T01:27:41.856Z,85.67
2023-02-16T01:28:35.578Z,86.07
2023-02-16T01:29:27.065Z,85.80
2023-02-16T01:30:21.603Z,85.81
2023-02-16T01:31:14.789Z,86.13
2023-02-16T01:32:06.508Z,85.99
2023-02-16T01:33:00.776Z,86.02
2023-02-16T01:33:53.455Z,85.98
2023-02-16T01:34:44.902Z,85.99
2023-02-16T01:35:36.557Z,85.80
2023-02-16T01:36:34.096Z,85.94
2023-02-16T01:37:25.804Z,86.02
2023-02-16T01:38:23.236Z,86.02
2023-02-16T01:39:18.565Z,86.15
2023-02-16T01:40:33.117Z,86.24
2023-02-16T01:41:30.601Z,86.25
2023-02-16T01:42:54.588Z,86.17
2023-02-16T01:43:52.469Z,86.44
2023-02-16T01:44:58.449Z,86.32
2023-02-16T01:46:29.077Z,86.25
2023-02-16T01:47:42.270Z,86.39
2023-02-16T01:48:33.746Z,86.40
2023-02-16T01:49:26.615Z,86.44
2023-02-16T01:50:24.461Z,86.35
2023-02-16T01:51:34.095Z,86.48
2023-02-16T01:52:40.558Z,86.55
2023-02-16T01:53:45.948Z,86.36
2023-02-16T01:54:49.186Z,86.12
2023-02-16T01:55:47.581Z,86.75
2023-02-16T01:56:47.753Z,86.59
2023-02-16T01:58:04.979Z,86.46
2023-02-16T01:59:04.545Z,86.60
2023-02-16T01:59:56.005Z,86.44
2023-02-16T02:00:56.185Z,86.48
2023-02-16T02:02:00.646Z,86.42
2023-02-16T02:03:19.838Z,86.42
2023-02-16T02:04:45.985Z,86.19
2023-02-16T02:05:37.656Z,85.87
2023-02-16T02:06:35.188Z,85.99
2023-02-16T02:07:35.839Z,86.03
2023-02-16T02:09:05.011Z,86.38
2023-02-16T02:10:08.570Z,86.29
2023-02-16T02:11:17.322Z,86.31
2023-02-16T02:12:38.001Z,86.19
2023-02-16T02:13:44.362Z,86.23
2023-02-16T02:14:39.843Z,86.42
2023-02-16T02:15:32.974Z,86.24
2023-02-16T02:16:28.088Z,86.36
2023-02-16T02:17:22.006Z,86.60
2023-02-16T02:18:14.432Z,86.53
2023-02-16T02:19:06.083Z,86.35
2023-02-16T02:20:49.328Z,86.23
2023-02-16T02:22:27.028Z,86.66
2023-02-16T02:23:51.186Z,86.64
2023-02-16T02:25:06.767Z,86.66
2023-02-16T02:26:32.388Z,86.75
2023-02-16T02:27:32.784Z,86.96
2023-02-16T02:28:42.660Z,86.92
2023-02-16T02:29:55.370Z,86.83
2023-02-16T02:30:55.131Z,87.01
2023-02-16T02:32:05.963Z,86.88
2023-02-16T02:33:05.080Z,86.84
2023-02-16T02:34:17.301Z,86.87
2023-02-16T02:35:08.956Z,86.75
2023-02-16T02:36:27.342Z,86.70
2023-02-16T02:37:40.637Z,86.74
2023-02-16T02:39:04.565Z,86.70
2023-02-16T02:40:11.572Z,86.73
2023-02-16T02:41:23.309Z,86.88
2023-02-16T02:42:33.602Z,86.93
2023-02-16T02:43:44.077Z,86.91
2023-02-16T02:45:02.503Z,86.92
2023-02-16T02:46:16.163Z,86.73
2023-02-16T02:47:08.846Z,86.71
2023-02-16T02:48:00.860Z,86.58
2023-02-16T02:48:52.729Z,86.51
2023-02-16T02:49:54.159Z,86.28
2023-02-16T02:51:21.396Z,86.61
2023-02-16T02:52:13.892Z,86.68
2023-02-16T02:53:11.346Z,86.61
2023-02-16T02:54:46.310Z,86.80
2023-02-16T02:56:05.459Z,86.82
2023-02-16T02:57:25.916Z,86.69
2023-02-16T02:58:43.096Z,86.87
2023-02-16T02:59:58.971Z,86.76
2023-02-16T03:00:53.560Z,86.85
2023-02-16T03:01:52.884Z,86.81
2023-02-16T03:02:49.951Z,87.13
2023-02-16T03:03:49.932Z,87.09
2023-02-16T03:04:44.386Z,87.32
2023-02-16T03:05:44.483Z,87.16
2023-02-16T03:06:43.001Z,87.01
2023-02-16T03:07:47.727Z,87.06
2023-02-16T03:08:44.634Z,86.93
2023-02-16T03:09:36.338Z,87.09
2023-02-16T03:10:49.530Z,86.94
2023-02-16T03:12:01.173Z,86.71
2023-02-16T03:12:52.769Z,86.52
2023-02-16T03:13:48.779Z,86.57
2023-02-16T03:14:48.152Z,86.56
2023-02-16T03:15:41.938Z,86.75
2023-02-16T03:16:43.628Z,86.70
2023-02-16T03:17:58.579Z,86.62
2023-02-16T03:19:09.287Z,86.74
2023-02-16T03:20:24.689Z,86.87
2023-02-16T03:21:35.006Z,87.00
2023-02-16T03:22:46.679Z,86.98
2023-02-16T03:24:01.040Z,87.03
2023-02-16T03:25:11.929Z,86.75
2023-02-16T03:26:22.244Z,86.90
2023-02-16T03:27:43.147Z,86.88
2023-02-16T03:28:58.090Z,87.12
2023-02-16T03:29:52.998Z,87.18
2023-02-16T03:30:47.676Z,87.10
2023-02-16T03:31:41.156Z,87.14
2023-02-16T03:32:33.627Z,87.03
2023-02-16T03:33:27.389Z,87.04
2023-02-16T03:34:21.266Z,86.96
2023-02-16T03:35:13.070Z,86.89
2023-02-16T03:36:05.776Z,86.89
2023-02-16T03:37:00.755Z,87.06
2023-02-16T03:37:52.625Z,86.93
2023-02-16T03:38:44.197Z,86.98
2023-02-16T03:39:55.786Z,87.32
2023-02-16T03:40:50.602Z,87.04
2023-02-16T03:41:54.302Z,87.25
2023-02-16T03:42:52.645Z,87.09
2023-02-16T03:43:44.398Z,87.42
2023-02-16T03:44:35.978Z,87.61
2023-02-16T03:45:29.252Z,87.49
2023-02-16T03:46:20.765Z,87.58
2023-02-16T03:47:12.261Z,87.81
2023-02-16T03:48:04.211Z,87.59
2023-02-16T03:48:55.957Z,87.58
2023-02-16T03:49:47.811Z,87.42
2023-02-16T03:50:39.279Z,87.61
2023-02-16T03:51:30.802Z,87.75
2023-02-16T03:52:22.224Z,87.66
2023-02-16T03:53:13.975Z,87.78
2023-02-16T03:54:05.621Z,87.75
2023-02-16T03:54:57.283Z,88.01
2023-02-16T03:55:49.141Z,87.85
2023-02-16T03:56:40.668Z,87.99
2023-02-16T03:57:32.162Z,87.97
2023-02-16T03:58:25.219Z,88.06
2023-02-16T03:59:16.958Z,88.05
2023-02-16T04:00:09.073Z,88.08
2023-02-16T04:01:08.446Z,87.92
2023-02-16T04:02:00.360Z,87.75
2023-02-16T04:02:52.088Z,87.79
2023-02-16T04:03:43.610Z,87.84
2023-02-16T04:04:35.231Z,87.91
2023-02-16T04:05:26.790Z,87.96
2023-02-16T04:06:18.516Z,87.89
2023-02-16T04:07:10.123Z,87.99
2023-02-16T04:08:01.839Z,87.97
2023-02-16T04:08:54.697Z,87.91
2023-02-16T04:09:46.134Z,87.92
2023-02-16T04:10:38.831Z,87.92
2023-02-16T04:11:49.349Z,88.07
2023-02-16T04:12:40.831Z,87.98
2023-02-16T04:13:32.278Z,87.92
2023-02-16T04:14:23.689Z,87.79
2023-02-16T04:15:22.491Z,87.88
2023-02-16T04:16:13.999Z,88.17
2023-02-16T04:17:05.538Z,88.00
2023-02-16T04:17:57.351Z,87.97
2023-02-16T04:18:49.099Z,87.88
2023-02-16T04:19:41.491Z,88.08
2023-02-16T04:20:35.186Z,88.08
2023-02-16T04:21:26.627Z,87.91
2023-02-16T04:22:18.103Z,87.88
2023-02-16T04:23:10.529Z,87.93
2023-02-16T04:24:02.756Z,87.99
2023-02-16T04:24:54.495Z,87.89
2023-02-16T04:25:46.071Z,87.79
2023-02-16T04:26:37.536Z,87.95
2023-02-16T04:27:29.080Z,87.79
2023-02-16T04:28:20.790Z,87.91
2023-02-16T04:29:12.401Z,87.81
2023-02-16T04:30:06.486Z,87.72
2023-02-16T04:30:58.299Z,88.01
2023-02-16T04:31:49.987Z,87.87
2023-02-16T04:32:41.715Z,87.92
2023-02-16T04:33:33.561Z,87.95
2023-02-16T04:34:25.256Z,87.76
2023-02-16T04:35:17.671Z,87.82
2023-02-16T04:36:09.586Z,87.96
2023-02-16T04:37:02.255Z,88.01
2023-02-16T04:37:53.763Z,87.84
2023-02-16T04:38:45.470Z,87.84
2023-02-16T04:39:37.253Z,87.82
2023-02-16T04:40:29.288Z,87.66
2023-02-16T04:41:20.988Z,87.87
2023-02-16T04:42:12.601Z,87.95
2023-02-16T04:43:04.149Z,87.81
2023-02-16T04:43:55.657Z,88.05
2023-02-16T04:44:47.156Z,87.99
2023-02-16T04:45:38.828Z,87.88
2023-02-16T04:46:30.682Z,87.96
2023-02-16T04:47:25.973Z,88.05
2023-02-16T04:48:17.673Z,87.95
2023-02-16T04:49:09.361Z,87.87
2023-02-16T04:50:00.875Z,88.11
2023-02-16T04:50:52.398Z,88.18
2023-02-16T04:51:43.930Z,88.06
2023-02-16T04:52:37.669Z,87.96
2023-02-16T04:53:29.184Z,88.09
2023-02-16T04:54:21.385Z,88.11
2023-02-16T04:55:12.911Z,88.05
2023-02-16T04:56:04.975Z,88.24
2023-02-16T04:56:56.434Z,88.00
2023-02-16T04:57:48.264Z,87.98
2023-02-16T04:58:40.301Z,88.29
2023-02-16T04:59:31.973Z,88.15
2023-02-16T05:00:23.710Z,88.23
2023-02-16T05:01:23.728Z,88.07
2023-02-16T05:02:15.215Z,88.06
2023-02-16T05:03:07.855Z,88.42
2023-02-16T05:03:59.276Z,88.16
2023-02-16T05:04:50.980Z,88.39
2023-02-16T05:05:42.546Z,88.47
2023-02-16T05:06:34.362Z,88.31
2023-02-16T05:07:26.212Z,88.41
2023-02-16T05:08:20.716Z,88.30
2023-02-16T05:09:12.609Z,88.29
2023-02-16T05:10:05.108Z,88.24
2023-02-16T05:11:14.938Z,88.25
2023-02-16T05:12:25.467Z,88.04
2023-02-16T05:13:35.253Z,88.10
2023-02-16T05:14:41.882Z,88.14
2023-02-16T05:15:33.639Z,88.06
2023-02-16T05:16:25.542Z,88.18
2023-02-16T05:17:22.801Z,88.22
2023-02-16T05:18:14.619Z,88.16
2023-02-16T05:19:06.247Z,88.25
2023-02-16T05:20:00.362Z,88.08
2023-02-16T05:21:10.139Z,88.03
2023-02-16T05:22:01.741Z,88.10
2023-02-16T05:22:53.179Z,88.04
2023-02-16T05:23:44.879Z,88.21
2023-02-16T05:24:37.695Z,87.99
2023-02-16T05:25:29.357Z,87.97
2023-02-16T05:26:20.784Z,87.87
2023-02-16T05:27:16.141Z,87.95
2023-02-16T05:28:07.863Z,87.78
2023-02-16T05:29:00.217Z,87.71
2023-02-16T05:29:52.277Z,87.99
2023-02-16T05:30:43.818Z,87.71
2023-02-16T05:31:35.406Z,87.66
2023-02-16T05:32:27.373Z,87.90
2023-02-16T05:33:18.814Z,87.93
2023-02-16T05:34:10.673Z,87.88
2023-02-16T05:35:02.095Z,87.98
2023-02-16T05:35:53.538Z,87.91
2023-02-16T05:36:45.276Z,87.92
2023-02-16T05:37:36.685Z,87.88
2023-02-16T05:38:28.134Z,87.93
2023-02-16T05:39:20.045Z,88.00
2023-02-16T05:40:12.311Z,87.91
2023-02-16T05:41:04.255Z,88.01
2023-02-16T05:41:56.042Z,87.97
2023-02-16T05:42:47.508Z,87.80
2023-02-16T05:43:38.905Z,87.86
2023-02-16T05:44:30.768Z,87.73
2023-02-16T05:45:22.198Z,88.01
2023-02-16T05:46:14.639Z,88.09
2023-02-16T05:47:06.148Z,88.21
2023-02-16T05:47:58.981Z,88.03
2023-02-16T05:48:51.151Z,88.13
2023-02-16T05:49:42.655Z,88.19
2023-02-16T05:50:34.117Z,88.12
2023-02-16T05:51:25.917Z,88.02
2023-02-16T05:52:17.344Z,88.24
2023-02-16T05:53:08.954Z,88.04
2023-02-16T05:54:00.789Z,88.00
2023-02-16T05:54:52.328Z,87.87
2023-02-16T05:55:44.260Z,87.92
2023-02-16T05:56:35.827Z,87.90
2023-02-16T05:57:27.300Z,87.95
2023-02-16T05:58:18.750Z,87.87
2023-02-16T05:59:10.409Z,88.03
2023-02-16T06:00:03.555Z,87.92
2023-02-16T06:00:58.475Z,88.01
2023-02-16T06:01:52.104Z,87.97
2023-02-16T06:02:43.980Z,87.95
2023-02-16T06:03:36.303Z,88.10
2023-02-16T06:04:28.563Z,88.19
2023-02-16T06:05:20.316Z,87.95
2023-02-16T06:06:12.047Z,88.32
2023-02-16T06:07:03.538Z,88.13
2023-02-16T06:07:55.360Z,87.99
2023-02-16T06:08:46.876Z,88.12
2023-02-16T06:09:38.568Z,88.20
2023-02-16T06:10:30.267Z,88.29
2023-02-16T06:11:36.860Z,88.27
2023-02-16T06:12:28.321Z,88.27
2023-02-16T06:13:21.235Z,88.25
2023-02-16T06:14:17.046Z,88.00
2023-02-16T06:15:09.056Z,87.94
2023-02-16T06:16:00.771Z,88.15
2023-02-16T06:16:52.252Z,88.06
2023-02-16T06:17:44.646Z,88.37
2023-02-16T06:18:36.497Z,88.29
2023-02-16T06:19:28.163Z,88.25
2023-02-16T06:20:20.496Z,88.06
2023-02-16T06:21:11.956Z,88.18
2023-02-16T06:22:03.578Z,88.14
2023-02-16T06:22:55.152Z,88.35
2023-02-16T06:23:46.942Z,88.28
2023-02-16T06:24:39.853Z,88.43
2023-02-16T06:25:31.735Z,88.32
2023-02-16T06:26:23.804Z,88.23
2023-02-16T06:27:15.244Z,88.33
2023-02-16T06:28:06.954Z,88.18
2023-02-16T06:28:58.552Z,88.28
2023-02-16T06:29:50.210Z,88.27
2023-02-16T06:30:42.831Z,88.34
2023-02-16T06:31:36.426Z,88.40
2023-02-16T06:32:28.830Z,88.55
2023-02-16T06:33:20.721Z,88.35
2023-02-16T06:34:13.318Z,88.46
2023-02-16T06:35:05.150Z,88.52
2023-02-16T06:35:56.639Z,88.40
2023-02-16T06:36:48.299Z,88.26
2023-02-16T06:37:40.041Z,88.47
2023-02-16T06:38:31.580Z,88.39
2023-02-16T06:39:24.047Z,88.54
2023-02-16T06:40:17.604Z,88.16
2023-02-16T06:41:09.485Z,88.12
2023-02-16T06:42:01.033Z,88.30
2023-02-16T06:42:52.841Z,88.28
2023-02-16T06:43:44.461Z,88.38
2023-02-16T06:44:36.222Z,88.31
2023-02-16T06:45:27.757Z,88.39
2023-02-16T06:46:19.176Z,88.40
2023-02-16T06:47:10.647Z,88.30
2023-02-16T06:48:02.072Z,88.16
2023-02-16T06:48:54.062Z,88.17
2023-02-16T06:49:45.504Z,87.86
2023-02-16T06:50:37.400Z,87.84
2023-02-16T06:51:29.860Z,87.36
2023-02-16T06:52:21.530Z,87.19
2023-02-16T06:53:12.999Z,87.25
2023-02-16T06:54:04.588Z,87.24
2023-02-16T06:54:56.100Z,87.26
2023-02-16T06:55:50.442Z,87.25
2023-02-16T06:56:41.985Z,87.06
2023-02-16T06:57:33.503Z,87.04
2023-02-16T06:58:24.972Z,86.99
2023-02-16T06:59:16.689Z,86.89
2023-02-16T07:00:09.295Z,87.08
2023-02-16T07:01:01.053Z,86.96
2023-02-16T07:01:52.578Z,86.96
2023-02-16T07:02:44.020Z,86.84
2023-02-16T07:03:35.522Z,86.62
2023-02-16T07:04:27.420Z,86.69
2023-02-16T07:05:19.104Z,87.03
2023-02-16T07:06:10.570Z,87.03
2023-02-16T07:07:02.759Z,86.64
2023-02-16T07:07:54.243Z,86.54
2023-02-16T07:08:46.031Z,86.35
2023-02-16T07:09:37.501Z,86.59
2023-02-16T07:10:40.377Z,86.64
2023-02-16T07:11:39.237Z,86.55
2023-02-16T07:12:30.975Z,86.43
2023-02-16T07:13:22.852Z,86.26
2023-02-16T07:14:15.849Z,86.13
2023-02-16T07:15:08.434Z,86.23
2023-02-16T07:16:00.184Z,86.24
2023-02-16T07:16:51.749Z,85.99
2023-02-16T07:17:43.190Z,86.00
2023-02-16T07:18:34.949Z,85.36
2023-02-16T07:19:27.063Z,85.09
2023-02-16T07:20:18.879Z,84.88
2023-02-16T07:21:10.736Z,84.47
2023-02-16T07:22:03.172Z,84.43
2023-02-16T07:22:54.711Z,84.01
2023-02-16T07:23:46.584Z,84.07
2023-02-16T07:24:38.257Z,84.16
2023-02-16T07:25:30.011Z,83.68
2023-02-16T07:26:21.675Z,83.82
2023-02-16T07:27:13.157Z,83.85
2023-02-16T07:28:04.880Z,83.76
2023-02-16T07:28:56.378Z,83.75
2023-02-16T07:29:47.847Z,83.85
2023-02-16T07:30:39.638Z,83.79
2023-02-16T07:31:31.548Z,84.02
2023-02-16T07:32:23.270Z,83.87
2023-02-16T07:33:15.736Z,83.67
2023-02-16T07:34:07.418Z,83.46
2023-02-16T07:34:59.187Z,83.38
2023-02-16T07:35:50.894Z,83.39
2023-02-16T07:36:42.581Z,82.97
2023-02-16T07:37:34.288Z,83.27
2023-02-16T07:38:25.867Z,82.99
2023-02-16T07:39:17.467Z,82.93
2023-02-16T07:40:10.553Z,82.32
2023-02-16T07:41:02.589Z,82.28
2023-02-16T07:41:54.466Z,82.43
2023-02-16T07:42:46.123Z,82.19
2023-02-16T07:43:39.486Z,82.51
2023-02-16T07:44:31.163Z,82.40
2023-02-16T07:45:22.690Z,82.38
2023-02-16T07:46:14.444Z,82.43
2023-02-16T07:47:05.982Z,82.64
2023-02-16T07:47:57.411Z,82.34
2023-02-16T07:48:49.868Z,82.65
2023-02-16T07:49:41.777Z,82.45
2023-02-16T07:50:33.369Z,82.32
2023-02-16T07:51:30.780Z,82.09
2023-02-16T07:52:22.637Z,82.48
2023-02-16T07:53:14.253Z,82.23
2023-02-16T07:54:06.728Z,82.10
2023-02-16T07:54:59.306Z,82.15
2023-02-16T07:55:50.749Z,82.09
2023-02-16T07:56:42.540Z,82.03
2023-02-16T07:57:34.296Z,81.83
2023-02-16T07:58:28.725Z,81.74
2023-02-16T07:59:20.246Z,81.46
2023-02-16T08:00:11.973Z,81.21
2023-02-16T08:01:14.095Z,81.27
2023-02-16T08:02:07.181Z,81.27
2023-02-16T08:02:58.882Z,81.10
2023-02-16T08:03:51.441Z,81.18
2023-02-16T08:04:43.640Z,80.80
2023-02-16T08:05:35.065Z,80.47
2023-02-16T08:06:26.973Z,80.73
2023-02-16T08:07:19.748Z,80.16
2023-02-16T08:08:11.248Z,80.42
2023-02-16T08:09:03.040Z,80.22
2023-02-16T08:09:54.784Z,80.33
2023-02-16T08:10:46.511Z,80.25
2023-02-16T08:11:38.235Z,79.93
2023-02-16T08:12:29.982Z,80.11
2023-02-16T08:13:21.902Z,79.29
2023-02-16T08:14:15.560Z,79.40
2023-02-16T08:15:07.710Z,78.95
2023-02-16T08:15:59.116Z,79.02
2023-02-16T08:16:54.164Z,79.45
2023-02-16T08:17:48.060Z,78.84
2023-02-16T08:18:41.868Z,79.06
2023-02-16T08:19:34.235Z,78.67
2023-02-16T08:20:45.166Z,78.43
2023-02-16T08:21:37.459Z,78.43
2023-02-16T08:22:29.405Z,78.48
2023-02-16T08:23:21.188Z,78.65
2023-02-16T08:24:13.229Z,78.79
2023-02-16T08:25:07.170Z,78.39
2023-02-16T08:25:59.030Z,78.30
2023-02-16T08:26:53.117Z,78.05
2023-02-16T08:27:44.624Z,78.14
2023-02-16T08:28:38.562Z,78.29
2023-02-16T08:29:30.731Z,77.97
2023-02-16T08:30:24.907Z,77.99
2023-02-16T08:31:19.610Z,78.00
2023-02-16T08:32:14.498Z,77.74
2023-02-16T08:33:06.380Z,77.56
2023-02-16T08:34:00.904Z,77.25
2023-02-16T08:34:52.762Z,77.07
2023-02-16T08:35:45.159Z,76.83
2023-02-16T08:36:38.505Z,76.81
2023-02-16T08:37:30.065Z,76.80
2023-02-16T08:38:21.682Z,76.89
2023-02-16T08:39:19.122Z,76.42
2023-02-16T08:40:11.400Z,76.71
2023-02-16T08:41:03.032Z,76.67
2023-02-16T08:41:55.382Z,76.38
2023-02-16T08:42:47.353Z,76.50
2023-02-16T08:43:38.822Z,76.40
2023-02-16T08:44:30.753Z,77.17
2023-02-16T08:45:22.610Z,77.21
2023-02-16T08:46:15.088Z,77.52
2023-02-16T08:47:06.968Z,77.41
2023-02-16T08:48:01.162Z,77.18
2023-02-16T08:48:55.544Z,77.17
2023-02-16T08:49:47.980Z,77.20
2023-02-16T08:50:47.301Z,77.21
2023-02-16T08:51:44.586Z,76.94
2023-02-16T08:52:36.313Z,76.78
2023-02-16T08:53:31.936Z,77.14
2023-02-16T08:54:27.932Z,76.76
2023-02-16T08:55:19.448Z,76.64
2023-02-16T08:56:11.299Z,76.32
2023-02-16T08:57:03.267Z,76.49
2023-02-16T08:57:54.793Z,76.39
2023-02-16T08:58:47.394Z,76.40
2023-02-16T08:59:39.024Z,76.35
2023-02-16T09:00:38.393Z,76.35
2023-02-16T09:01:30.793Z,76.40
2023-02-16T09:02:22.901Z,76.49
2023-02-16T09:03:14.602Z,76.47
2023-02-16T09:04:07.352Z,76.50
2023-02-16T09:04:58.822Z,76.27
2023-02-16T09:05:55.628Z,76.43
2023-02-16T09:06:48.550Z,76.21
2023-02-16T09:07:41.355Z,76.02
2023-02-16T09:08:33.600Z,75.75
2023-02-16T09:09:27.107Z,75.98
2023-02-16T09:10:19.246Z,75.65
2023-02-16T09:11:16.258Z,75.62
2023-02-16T09:12:08.257Z,75.72
2023-02-16T09:12:59.794Z,75.90
2023-02-16T09:13:51.865Z,75.97
2023-02-16T09:14:43.414Z,76.24
2023-02-16T09:15:35.973Z,75.64
2023-02-16T09:16:29.203Z,75.80
2023-02-16T09:17:20.745Z,76.12
2023-02-16T09:18:12.572Z,76.07
2023-02-16T09:19:04.889Z,75.45
2023-02-16T09:19:56.638Z,75.36
2023-02-16T09:20:48.117Z,75.21
2023-02-16T09:21:39.614Z,75.64
2023-02-16T09:22:31.797Z,75.90
2023-02-16T09:23:23.781Z,75.99
2023-02-16T09:24:15.831Z,75.88
2023-02-16T09:25:08.347Z,75.51
2023-02-16T09:26:02.219Z,75.33
2023-02-16T09:26:53.857Z,75.31
2023-02-16T09:27:45.761Z,75.48
2023-02-16T09:28:38.230Z,75.40
2023-02-16T09:29:29.769Z,75.49
2023-02-16T09:30:21.455Z,75.29
2023-02-16T09:31:20.290Z,75.04
2023-02-16T09:32:12.171Z,75.00
2023-02-16T09:33:04.297Z,74.88
2023-02-16T09:34:03.875Z,74.85
2023-02-16T09:34:55.615Z,74.44
2023-02-16T09:35:47.359Z,74.21
2023-02-16T09:36:39.077Z,74.04
2023-02-16T09:37:30.475Z,73.70
2023-02-16T09:38:22.771Z,73.24
2023-02-16T09:39:14.897Z,73.11
2023-02-16T09:40:07.305Z,72.78
2023-02-16T09:41:00.268Z,71.34
2023-02-16T09:42:17.057Z,70.49
2023-02-16T09:43:19.989Z,70.13
2023-02-16T09:44:39.208Z,70.49
2023-02-16T09:45:38.429Z,70.54
2023-02-16T09:46:32.952Z,70.96
2023-02-16T09:47:31.963Z,70.97
2023-02-16T09:48:42.561Z,70.55
2023-02-16T09:49:42.304Z,70.07
2023-02-16T09:51:59.889Z,69.42
2023-02-16T09:53:11.529Z,68.97
2023-02-16T09:54:22.834Z,68.88
2023-02-16T09:55:18.052Z,68.68
2023-02-16T09:56:29.493Z,67.98
2023-02-16T09:57:59.297Z,67.64
2023-02-16T09:58:53.627Z,67.31
2023-02-16T09:59:58.266Z,67.63
2023-02-16T10:01:02.845Z,67.42
2023-02-16T10:02:18.379Z,67.17
2023-02-16T10:03:19.280Z,67.11
2023-02-16T10:04:24.238Z,67.14
2023-02-16T10:05:25.510Z,66.75
2023-02-16T10:06:33.909Z,66.79
2023-02-16T10:07:40.578Z,66.88
2023-02-16T10:08:39.887Z,66.81
2023-02-16T10:09:34.099Z,66.63
2023-02-16T10:10:34.473Z,66.05
2023-02-16T10:11:48.955Z,65.87
2023-02-16T10:12:50.472Z,65.85
2023-02-16T10:13:54.209Z,66.14
2023-02-16T10:14:59.748Z,66.06
2023-02-16T10:15:55.839Z,66.10
2023-02-16T10:16:57.574Z,66.50
2023-02-16T10:17:55.930Z,66.39
2023-02-16T10:18:54.787Z,66.53
2023-02-16T10:20:13.688Z,66.45
2023-02-16T10:21:15.357Z,66.45
2023-02-16T10:22:17.370Z,65.99
2023-02-16T10:23:25.422Z,65.55
2023-02-16T10:24:17.577Z,65.72
2023-02-16T10:25:20.115Z,65.31
2023-02-16T10:26:33.754Z,65.89
2023-02-16T10:27:39.534Z,66.14
2023-02-16T10:28:55.142Z,66.77
2023-02-16T10:29:46.696Z,65.56
2023-02-16T10:30:44.830Z,65.34
2023-02-16T10:32:12.831Z,65.71
2023-02-16T10:33:17.136Z,65.85
2023-02-16T10:34:23.159Z,65.90
2023-02-16T10:35:20.722Z,65.27
2023-02-16T10:36:28.738Z,65.49
2023-02-16T10:37:35.172Z,65.52
2023-02-16T10:38:49.884Z,65.99
2023-02-16T10:40:14.180Z,66.20
2023-02-16T10:41:37.562Z,66.34
2023-02-16T10:42:56.517Z,65.73
2023-02-16T10:43:58.276Z,65.88
2023-02-16T10:45:34.844Z,66.17
2023-02-16T10:46:34.444Z,65.80
2023-02-16T10:47:37.724Z,66.06
2023-02-16T10:48:29.388Z,66.18
2023-02-16T10:49:21.650Z,66.29
2023-02-16T10:50:23.418Z,66.27
2023-02-16T10:51:18.690Z,65.82
2023-02-16T10:52:12.020Z,66.03
2023-02-16T10:53:17.458Z,66.00
2023-02-16T10:54:21.435Z,66.06
2023-02-16T10:55:13.370Z,66.34
2023-02-16T10:56:22.967Z,66.49
2023-02-16T10:57:26.940Z,66.92
2023-02-16T10:58:29.380Z,66.96
2023-02-16T10:59:25.798Z,66.89
2023-02-16T11:00:27.627Z,66.76
2023-02-16T11:01:30.524Z,66.76
2023-02-16T11:02:25.058Z,66.77
2023-02-16T11:03:23.954Z,66.61
2023-02-16T11:04:31.894Z,66.84
2023-02-16T11:05:26.133Z,67.27
2023-02-16T11:06:25.533Z,67.97
2023-02-16T11:07:20.201Z,67.94
2023-02-16T11:08:13.005Z,67.89
2023-02-16T11:09:06.506Z,67.66
2023-02-16T11:10:03.054Z,67.59
2023-02-16T11:10:55.671Z,67.58
2023-02-16T11:11:47.679Z,67.47
2023-02-16T11:12:39.650Z,67.38
2023-02-16T11:13:35.840Z,67.49
2023-02-16T11:14:31.022Z,68.07
2023-02-16T11:15:26.223Z,67.98
2023-02-16T11:16:23.625Z,68.05
2023-02-16T11:17:18.768Z,67.26
2023-02-16T11:18:35.143Z,67.78
2023-02-16T11:19:27.014Z,67.33
2023-02-16T11:20:31.620Z,66.75
2023-02-16T11:22:02.594Z,66.81
2023-02-16T11:22:54.636Z,66.79
2023-02-16T11:23:59.517Z,66.47
2023-02-16T11:24:51.040Z,66.15
2023-02-16T11:25:53.500Z,66.24
2023-02-16T11:27:00.666Z,66.38
2023-02-16T11:27:53.935Z,66.89
2023-02-16T11:28:48.725Z,66.28
2023-02-16T11:29:41.198Z,66.27
2023-02-16T11:30:34.817Z,66.09
2023-02-16T11:31:37.907Z,66.34
2023-02-16T11:32:34.413Z,65.86
2023-02-16T11:33:28.548Z,65.96
2023-02-16T11:34:39.642Z,65.93
2023-02-16T11:35:41.218Z,65.64
2023-02-16T11:36:34.354Z,64.39
2023-02-16T11:37:33.811Z,63.48
2023-02-16T11:38:36.961Z,63.59
2023-02-16T11:39:36.248Z,64.01
2023-02-16T11:40:33.445Z,63.70
2023-02-16T11:41:27.129Z,63.76
2023-02-16T11:42:29.817Z,64.21
2023-02-16T11:43:22.103Z,64.21
2023-02-16T11:44:34.842Z,63.73
2023-02-16T11:45:34.431Z,63.40
2023-02-16T11:46:26.693Z,63.60
2023-02-16T11:47:33.892Z,63.51
2023-02-16T11:48:28.848Z,63.17
2023-02-16T11:49:35.741Z,63.17
2023-02-16T11:50:33.394Z,63.01
2023-02-16T11:51:34.437Z,63.82
2023-02-16T11:52:31.721Z,63.66
2023-02-16T11:53:27.686Z,63.86
2023-02-16T11:54:20.828Z,63.26
2023-02-16T11:55:35.880Z,63.37
2023-02-16T11:56:36.371Z,63.40
2023-02-16T11:57:31.334Z,63.10
2023-02-16T11:58:28.030Z,62.92
2023-02-16T11:59:21.938Z,63.47
2023-02-16T12:00:23.942Z,63.38
2023-02-16T12:01:43.013Z,64.22
2023-02-16T12:03:08.934Z,63.79
2023-02-16T12:04:12.565Z,63.61
2023-02-16T12:05:24.609Z,64.27
2023-02-16T12:06:34.516Z,64.29
2023-02-16T12:08:03.611Z,64.12
2023-02-16T12:09:07.010Z,63.84
2023-02-16T12:10:17.351Z,64.57
2023-02-16T12:11:17.306Z,64.86
2023-02-16T12:12:20.893Z,64.83
2023-02-16T12:13:40.440Z,65.08
2023-02-16T12:14:37.700Z,65.12
2023-02-16T12:15:44.738Z,64.59